Time;durP1;ratioP1;P1;durP2;ratioP2;P2;SDS_P1;SDS_P2;PMS_P1;PMS_P2;Temp;Humidity;BMP_temperature;BMP_pressure;BME280_temperature;BME280_humidity;BME280_pressure;Samples;Min_cycle;Max_cycle;Signal;HPM_P1;HPM_P2
2022/04/12 00:01:08;;;;;;;12.33;9.47;;;;;;;2.11;90.66;101876.03;5034445;28;20435;-44
2022/04/12 00:03:37;;;;;;;9.03;8.43;;;;;;;2.10;90.79;101887.50;5034559;28;20795;-48
2022/04/12 00:06:04;;;;;;;10.50;9.77;;;;;;;2.08;91.09;101885.00;5034470;28;20432;-44
2022/04/12 00:08:32;;;;;;;11.07;10.07;;;;;;;2.10;91.63;101896.25;5034106;28;20464;-50
2022/04/12 00:11:00;;;;;;;11.27;10.27;;;;;;;2.08;91.66;101890.25;5034264;28;20480;-45
2022/04/12 00:13:28;;;;;;;9.87;8.97;;;;;;;2.07;91.28;101893.84;5034246;28;21048;-47
2022/04/12 00:15:57;;;;;;;9.80;8.97;;;;;;;2.03;91.22;101897.63;5034330;28;20428;-44
2022/04/12 00:21:10;;;;;;;9.37;8.67;;;;;;;1.92;91.14;101889.69;5034052;28;20972;-45
2022/04/12 00:23:38;;;;;;;10.53;8.83;;;;;;;1.88;90.98;101897.94;5034190;28;20444;-52
2022/04/12 00:26:05;;;;;;;9.53;8.57;;;;;;;1.80;90.96;101887.97;5034258;28;20436;-49
2022/04/12 00:28:33;;;;;;;8.70;8.20;;;;;;;1.76;91.06;101891.81;5033499;28;20472;-46
2022/04/12 00:31:02;;;;;;;8.90;8.40;;;;;;;1.72;91.41;101887.69;5033615;28;20479;-50
2022/04/12 00:33:30;;;;;;;11.13;8.20;;;;;;;1.67;91.52;101887.22;5033927;28;21007;-49
2022/04/12 00:36:00;;;;;;;8.47;7.93;;;;;;;1.62;90.94;101897.19;5034121;28;20436;-48
2022/04/12 00:38:33;;;;;;;9.50;8.90;;;;;;;1.56;91.51;101905.53;5033687;28;20474;-49
2022/04/12 00:41:00;;;;;;;8.20;7.53;;;;;;;1.48;90.89;101900.84;5033246;28;20429;-47
2022/04/12 00:43:30;;;;;;;9.43;8.63;;;;;;;1.45;91.53;101898.41;5033700;28;20440;-51
2022/04/12 00:46:00;;;;;;;8.73;7.90;;;;;;;1.43;91.29;101886.34;5030417;28;20434;-46
2022/04/12 00:48:30;;;;;;;7.80;7.10;;;;;;;1.39;91.89;101892.75;5017607;28;20471;-48
2022/04/12 00:50:58;;;;;;;7.60;7.00;;;;;;;1.33;91.71;101895.81;5033533;28;20483;-45
2022/04/12 00:53:27;;;;;;;8.27;7.77;;;;;;;1.27;91.67;101886.59;5033550;28;20448;-46
2022/04/12 00:55:55;;;;;;;8.23;7.60;;;;;;;1.24;91.62;101881.56;5033588;28;20420;-47
2022/04/12 00:58:23;;;;;;;7.87;7.27;;;;;;;1.24;91.86;101880.72;5032873;28;20475;-47
2022/04/12 01:00:51;;;;;;;9.07;8.37;;;;;;;1.28;92.22;101879.56;5033470;28;20789;-49
2022/04/12 01:03:19;;;;;;;8.60;7.90;;;;;;;1.30;93.16;101865.34;5033519;28;20442;-48
2022/04/12 01:05:49;;;;;;;8.30;7.60;;;;;;;1.32;93.18;101873.09;5033481;28;20864;-46
2022/04/12 01:08:18;;;;;;;10.23;9.43;;;;;;;1.34;92.89;101874.72;5032810;28;20452;-46
2022/04/12 01:10:46;;;;;;;8.93;7.93;;;;;;;1.36;93.38;101872.81;5032861;28;20982;-49
2022/04/12 01:13:14;;;;;;;11.23;8.60;;;;;;;1.39;94.12;101877.84;5033386;28;20440;-50
2022/04/12 01:15:43;;;;;;;10.50;7.97;;;;;;;1.43;94.51;101871.41;5033110;28;20439;-48
2022/04/12 01:18:11;;;;;;;8.53;8.00;;;;;;;1.46;94.56;101873.84;5032594;28;20463;-47
2022/04/12 01:20:38;;;;;;;9.47;8.77;;;;;;;1.47;94.98;101867.59;5032916;28;20432;-46
2022/04/12 01:23:12;;;;;;;8.93;8.20;;;;;;;1.47;95.12;101878.13;5032918;28;20442;-48
2022/04/12 01:25:41;;;;;;;9.37;8.77;;;;;;;1.50;94.94;101874.41;5033257;28;20438;-47
2022/04/12 01:28:10;;;;;;;11.27;10.27;;;;;;;1.52;95.55;101869.91;5032583;28;20463;-44
2022/04/12 01:30:38;;;;;;;10.27;9.57;;;;;;;1.53;95.53;101861.91;5032600;28;20463;-47
2022/04/12 01:33:07;;;;;;;12.60;11.53;;;;;;;1.53;95.29;101864.53;5033065;28;20433;-52
2022/04/12 01:35:34;;;;;;;11.63;10.60;;;;;;;1.53;95.22;101866.31;5032765;28;20432;-47
2022/04/12 01:38:02;;;;;;;11.63;9.13;;;;;;;1.50;95.04;101861.28;5032478;28;20431;-47
2022/04/12 01:40:30;;;;;;;10.07;9.23;;;;;;;1.48;95.14;101848.25;5032569;28;20538;-46
2022/04/12 01:42:59;;;;;;;12.20;10.70;;;;;;;1.45;95.32;101859.00;5032788;28;20471;-46
2022/04/12 01:45:27;;;;;;;11.20;10.33;;;;;;;1.45;95.66;101851.13;5028975;28;20428;-45
2022/04/12 01:47:55;;;;;;;10.43;9.57;;;;;;;1.47;95.69;101843.09;5023834;28;20424;-50
2022/04/12 01:50:23;;;;;;;11.27;10.30;;;;;;;1.45;95.79;101843.22;5032363;28;20452;-47
2022/04/12 01:52:51;;;;;;;9.10;8.30;;;;;;;1.44;95.77;101846.78;5031946;28;20436;-50
2022/04/12 01:55:18;;;;;;;8.73;8.13;;;;;;;1.43;95.80;101839.88;5032384;28;20435;-46
2022/04/12 01:57:46;;;;;;;8.20;7.60;;;;;;;1.43;95.92;101834.63;5032089;28;20428;-47
2022/04/12 02:00:15;;;;;;;8.67;7.93;;;;;;;1.42;95.79;101846.06;5032025;28;20463;-48
2022/04/12 02:02:43;;;;;;;9.63;8.73;;;;;;;1.41;95.42;101840.91;5032213;28;20434;-46
2022/04/12 02:05:11;;;;;;;8.50;7.80;;;;;;;1.39;95.38;101837.56;5032511;28;20498;-44
2022/04/12 02:07:39;;;;;;;8.10;7.60;;;;;;;1.38;95.74;101838.50;5032453;28;20501;-48
2022/04/12 02:10:07;;;;;;;9.20;8.40;;;;;;;1.38;95.59;101830.63;5031671;28;20467;-45
2022/04/12 02:12:35;;;;;;;10.90;8.27;;;;;;;1.44;96.53;101828.41;5031965;28;20468;-49
2022/04/12 02:15:03;;;;;;;8.53;8.03;;;;;;;1.48;96.23;101827.22;5032111;28;20436;-46
2022/04/12 02:17:32;;;;;;;10.13;9.00;;;;;;;1.53;96.45;101826.88;5032105;28;20439;-49
2022/04/12 02:20:00;;;;;;;9.70;8.93;;;;;;;1.55;96.32;101819.75;5031529;28;20468;-50
2022/04/12 02:22:27;;;;;;;10.03;9.23;;;;;;;1.58;95.87;101822.97;5031822;28;20432;-49
2022/04/12 02:24:55;;;;;;;9.20;8.40;;;;;;;1.63;95.63;101820.84;5031858;28;20436;-46
2022/04/12 02:27:23;;;;;;;8.07;7.60;;;;;;;1.66;95.42;101820.63;5031903;28;20797;-47
2022/04/12 02:29:51;;;;;;;8.87;7.97;;;;;;;1.68;95.18;101816.09;5031358;28;20464;-45
2022/04/12 02:32:18;;;;;;;8.90;8.17;;;;;;;1.72;95.06;101819.34;5031614;28;20472;-44
2022/04/12 02:34:47;;;;;;;8.70;8.20;;;;;;;1.74;94.86;101819.19;5032134;28;20451;-47
2022/04/12 02:37:15;;;;;;;8.50;7.90;;;;;;;1.77;94.52;101805.81;5032114;28;20432;-50
2022/04/12 02:39:42;;;;;;;8.77;8.07;;;;;;;1.76;94.53;101798.91;5031326;28;20472;-44
2022/04/12 02:42:10;;;;;;;8.30;7.80;;;;;;;1.77;94.49;101800.56;5031607;28;20431;-46
2022/04/12 02:44:38;;;;;;;8.60;7.93;;;;;;;1.76;93.80;101798.91;5031220;28;20436;-48
2022/04/12 02:47:06;;;;;;;9.63;8.37;;;;;;;1.75;93.28;101794.59;5020784;28;20429;-46
2022/04/12 02:49:34;;;;;;;9.13;8.37;;;;;;;1.75;93.48;101797.22;5031217;28;20468;-46
2022/04/12 02:52:03;;;;;;;8.63;8.03;;;;;;;1.76;93.45;101793.66;5031483;28;20499;-46
2022/04/12 02:54:31;;;;;;;7.90;7.40;;;;;;;1.78;93.34;101797.00;5031593;28;20443;-44
2022/04/12 02:56:58;;;;;;;8.60;8.10;;;;;;;1.80;93.05;101805.59;5031578;28;20436;-46
2022/04/12 02:59:26;;;;;;;7.80;7.40;;;;;;;1.80;93.30;101803.81;5031093;28;20468;-46
2022/04/12 03:01:54;;;;;;;8.53;7.67;;;;;;;1.83;92.84;101800.13;5032695;28;20428;-44
2022/04/12 03:04:22;;;;;;;10.00;8.43;;;;;;;1.86;93.29;101808.63;5035401;28;20486;-45
2022/04/12 03:06:49;;;;;;;7.73;7.43;;;;;;;1.88;92.66;101806.69;5036344;28;20806;-47
2022/04/12 03:09:19;;;;;;;12.23;8.60;;;;;;;1.90;92.49;101811.88;5035538;28;20995;-46
2022/04/12 03:11:46;;;;;;;8.30;7.73;;;;;;;1.91;92.50;101818.81;5035975;28;20495;-46
2022/04/12 03:14:14;;;;;;;8.77;8.07;;;;;;;1.90;91.95;101810.06;5036032;28;20436;-44
2022/04/12 03:16:42;;;;;;;9.17;7.80;;;;;;;1.89;91.62;101813.66;5036073;28;20854;-45
2022/04/12 03:19:10;;;;;;;8.33;7.73;;;;;;;1.87;91.82;101809.47;5035323;28;20487;-44
2022/04/12 03:21:37;;;;;;;7.57;7.03;;;;;;;1.85;91.44;101806.94;5035332;28;20432;-44
2022/04/12 03:24:06;;;;;;;8.83;8.17;;;;;;;1.83;91.03;101808.84;5035276;28;20941;-46
2022/04/12 03:26:35;;;;;;;8.80;8.20;;;;;;;1.82;91.07;101808.97;5035760;28;20439;-45
2022/04/12 03:29:03;;;;;;;8.43;7.80;;;;;;;1.83;91.15;101808.00;5035011;28;20462;-45
2022/04/12 03:31:30;;;;;;;7.67;7.00;;;;;;;1.85;91.79;101804.31;5035242;28;20438;-44
2022/04/12 03:33:58;;;;;;;8.30;7.53;;;;;;;1.87;91.32;101807.69;5035470;28;20506;-46
2022/04/12 03:36:26;;;;;;;7.93;7.13;;;;;;;1.90;91.82;101814.50;5035362;28;20438;-45
2022/04/12 03:38:53;;;;;;;8.03;7.43;;;;;;;1.93;91.48;101819.53;5034785;28;20467;-46
2022/04/12 03:41:23;;;;;;;8.70;7.97;;;;;;;1.95;91.81;101813.19;5035130;28;20442;-45
2022/04/12 03:43:52;;;;;;;7.63;6.90;;;;;;;1.98;91.80;101814.75;5035400;28;20432;-44
2022/04/12 03:46:20;;;;;;;7.40;7.00;;;;;;;2.00;91.91;101811.03;5028984;28;20432;-44
2022/04/12 03:48:48;;;;;;;6.90;6.40;;;;;;;2.03;92.16;101817.91;5029398;28;20464;-44
2022/04/12 03:51:20;;;;;;;7.07;6.37;;;;;;;2.05;91.88;101808.94;5034971;28;20420;-44
2022/04/12 03:53:47;;;;;;;6.87;6.27;;;;;;;2.08;91.33;101800.81;5034909;28;20981;-44
2022/04/12 03:56:15;;;;;;;6.83;6.30;;;;;;;2.12;91.59;101811.94;5035274;28;20545;-45
2022/04/12 03:58:43;;;;;;;7.13;6.67;;;;;;;2.13;90.61;101814.44;5034434;28;20463;-45
2022/04/12 04:01:12;;;;;;;6.07;5.57;;;;;;;2.13;90.75;101811.81;5034889;28;20432;-50
2022/04/12 04:03:40;;;;;;;7.47;5.87;;;;;;;2.13;90.32;101806.53;5034824;28;20440;-49
2022/04/12 04:06:08;;;;;;;7.93;7.27;;;;;;;2.14;89.72;101799.50;5035115;28;20432;-44
2022/04/12 04:08:37;;;;;;;6.03;5.53;;;;;;;2.15;89.15;101804.63;5034459;28;20463;-44
2022/04/12 04:11:04;;;;;;;6.90;6.13;;;;;;;2.18;89.33;101806.22;5034444;28;20436;-44
2022/04/12 04:13:36;;;;;;;6.93;6.53;;;;;;;2.22;89.10;101805.00;5034678;28;20546;-45
2022/04/12 04:16:04;;;;;;;5.70;5.40;;;;;;;2.27;88.04;101794.13;5033805;28;20428;-46
2022/04/12 04:18:33;;;;;;;7.30;6.90;;;;;;;2.30;87.64;101799.16;5034359;28;20468;-45
2022/04/12 04:21:01;;;;;;;7.10;6.50;;;;;;;2.34;87.47;101798.81;5034447;28;20428;-47
2022/04/12 04:23:29;;;;;;;6.90;6.50;;;;;;;2.38;87.62;101802.03;5034428;28;20929;-44
2022/04/12 04:25:57;;;;;;;7.20;6.77;;;;;;;2.42;87.37;101801.69;5034537;28;20432;-45
2022/04/12 04:28:29;;;;;;;8.17;7.37;;;;;;;2.47;87.60;101806.59;5033738;28;20468;-44
2022/04/12 04:30:57;;;;;;;6.67;6.30;;;;;;;2.52;87.96;101801.81;5034367;28;20440;-46
2022/04/12 04:33:25;;;;;;;6.67;6.27;;;;;;;2.55;87.84;101802.41;5034533;28;20562;-45
2022/04/12 04:35:54;;;;;;;6.87;6.20;;;;;;;2.60;88.45;101802.03;5034358;28;20436;-45
2022/04/12 04:38:22;;;;;;;7.07;6.47;;;;;;;2.67;88.23;101803.25;5033695;28;20471;-45
2022/04/12 04:40:50;;;;;;;6.67;6.13;;;;;;;2.72;88.61;101799.28;5033830;28;20428;-44
2022/04/12 04:43:17;;;;;;;7.07;6.40;;;;;;;2.82;88.47;101804.69;5033970;28;20439;-44
2022/04/12 04:45:45;;;;;;;8.13;6.30;;;;;;;2.92;88.59;101803.00;5030761;28;20432;-44
2022/04/12 04:48:13;;;;;;;8.50;7.67;;;;;;;3.07;88.90;101806.22;5025398;28;20514;-44
2022/04/12 04:50:41;;;;;;;6.03;5.53;;;;;;;3.15;87.87;101804.66;5033967;28;20432;-45
2022/04/12 04:53:10;;;;;;;9.40;8.50;;;;;;;3.24;87.40;101809.19;5033880;28;20475;-45
2022/04/12 04:55:42;;;;;;;8.33;7.57;;;;;;;3.37;87.00;101809.03;5033917;28;20441;-45
2022/04/12 04:58:10;;;;;;;7.93;6.60;;;;;;;3.37;85.89;101808.19;5033556;28;20484;-45
2022/04/12 05:00:38;;;;;;;7.50;6.53;;;;;;;3.40;85.52;101808.78;5033568;28;20960;-44
2022/04/12 05:03:05;;;;;;;7.50;6.90;;;;;;;3.43;85.34;101808.53;5033849;28;20458;-45
2022/04/12 05:05:33;;;;;;;7.63;6.93;;;;;;;3.43;84.69;101813.81;5033674;28;20959;-46
2022/04/12 05:08:02;;;;;;;8.17;7.53;;;;;;;3.50;85.10;101822.88;5033031;28;20440;-45
2022/04/12 05:10:32;;;;;;;8.80;7.63;;;;;;;3.62;85.26;101813.97;5033632;28;20474;-45
2022/04/12 05:13:01;;;;;;;7.37;6.80;;;;;;;3.80;85.25;101823.00;5033619;28;20475;-44
2022/04/12 05:15:30;;;;;;;8.33;7.73;;;;;;;3.93;84.10;101822.84;5033680;28;20432;-45
2022/04/12 05:18:03;;;;;;;7.33;6.63;;;;;;;4.08;83.06;101824.19;5032931;28;20420;-47
2022/04/12 05:20:30;;;;;;;7.07;6.57;;;;;;;4.25;81.86;101828.06;5032950;28;20996;-46
2022/04/12 05:22:58;;;;;;;6.67;6.10;;;;;;;4.47;82.07;101833.19;5033299;28;20432;-44
2022/04/12 05:25:26;;;;;;;6.97;6.23;;;;;;;4.77;82.26;101835.88;5033619;28;20450;-43
2022/04/12 05:27:55;;;;;;;10.40;6.27;;;;;;;5.15;82.82;101837.78;5032999;28;20806;-46
2022/04/12 05:30:22;;;;;;;7.17;6.47;;;;;;;5.54;82.37;101836.91;5032889;28;20460;-45
2022/04/12 05:32:50;;;;;;;7.70;5.80;;;;;;;6.01;79.20;101848.50;5033103;28;20482;-45
2022/04/12 05:35:17;;;;;;;7.13;5.67;;;;;;;6.60;79.74;101850.13;5032927;28;20435;-44
2022/04/12 05:37:46;;;;;;;6.33;5.73;;;;;;;7.24;78.38;101852.75;5032516;28;20934;-44
2022/04/12 05:40:18;;;;;;;8.90;6.13;;;;;;;7.73;77.16;101852.31;5032788;28;20458;-44
2022/04/12 05:42:46;;;;;;;7.37;6.30;;;;;;;8.23;77.56;101862.38;5033138;28;20424;-44
2022/04/12 05:45:16;;;;;;;7.83;7.27;;;;;;;8.49;76.01;101841.16;5029257;28;20437;-48
2022/04/12 05:47:46;;;;;;;8.03;7.53;;;;;;;8.52;71.27;101843.50;5024593;28;20952;-44
2022/04/12 05:50:15;;;;;;;7.23;6.83;;;;;;;8.45;67.87;101837.16;5032608;28;20455;-47
2022/04/12 05:52:44;;;;;;;8.43;7.63;;;;;;;8.34;67.24;101841.72;5032828;28;20434;-45
2022/04/12 05:55:15;;;;;;;9.57;8.40;;;;;;;8.30;67.04;101845.69;5033320;28;20984;-46
2022/04/12 05:57:49;;;;;;;9.47;8.87;;;;;;;8.13;65.74;101846.53;5033522;28;20507;-46
2022/04/12 06:00:20;;;;;;;8.40;7.87;;;;;;;8.06;64.22;101849.97;5033103;28;20452;-45
2022/04/12 06:02:48;;;;;;;11.80;10.43;;;;;;;8.16;66.10;101848.03;5033618;28;20428;-44
2022/04/12 06:05:17;;;;;;;12.67;11.30;;;;;;;7.99;64.37;101847.06;5033396;28;20471;-46
2022/04/12 06:07:45;;;;;;;8.73;7.97;;;;;;;7.80;64.54;101848.06;5033340;28;20432;-45
2022/04/12 06:10:15;;;;;;;9.37;8.53;;;;;;;7.72;65.56;101841.84;5032553;28;20992;-44
2022/04/12 06:12:43;;;;;;;7.93;7.40;;;;;;;7.61;65.54;101844.72;5032806;28;21007;-45
2022/04/12 06:15:11;;;;;;;7.47;7.07;;;;;;;7.54;65.48;101846.28;5033172;28;20427;-44
2022/04/12 06:17:40;;;;;;;9.07;8.13;;;;;;;7.35;66.44;101847.25;5032603;28;20432;-49
2022/04/12 06:20:10;;;;;;;8.50;8.00;;;;;;;7.44;67.56;101837.56;5031680;28;20464;-44
2022/04/12 06:22:39;;;;;;;9.63;9.03;;;;;;;7.31;67.16;101837.09;5032472;28;20432;-46
2022/04/12 06:25:08;;;;;;;9.10;8.33;;;;;;;7.15;66.44;101838.56;5032252;28;20436;-46
2022/04/12 06:27:38;;;;;;;9.43;8.70;;;;;;;7.00;67.58;101845.34;5032514;28;20433;-45
2022/04/12 06:30:09;;;;;;;9.33;8.77;;;;;;;6.90;67.68;101846.38;5031464;28;20467;-45
2022/04/12 06:32:37;;;;;;;8.47;7.97;;;;;;;6.97;68.35;101842.16;5032408;28;20455;-48
2022/04/12 06:35:10;;;;;;;7.90;7.60;;;;;;;6.81;68.29;101840.09;5032048;28;20837;-45
2022/04/12 06:37:39;;;;;;;8.60;8.07;;;;;;;6.81;69.44;101840.09;5031840;28;20432;-45
2022/04/12 06:40:09;;;;;;;8.90;8.30;;;;;;;6.80;69.29;101849.06;5031549;28;20475;-44
2022/04/12 06:42:37;;;;;;;9.10;8.37;;;;;;;6.80;69.15;101842.91;5032300;28;20467;-44
2022/04/12 06:45:08;;;;;;;8.63;8.10;;;;;;;6.75;69.90;101843.34;5028784;28;20441;-49
2022/04/12 06:47:37;;;;;;;8.73;8.23;;;;;;;6.63;69.16;101829.44;5023952;28;20421;-45
2022/04/12 06:50:07;;;;;;;7.87;7.53;;;;;;;6.66;70.09;101845.03;5031618;28;20460;-45
2022/04/12 06:52:35;;;;;;;9.93;8.60;;;;;;;6.66;69.73;101820.34;5031671;28;20940;-44
2022/04/12 06:55:04;;;;;;;9.50;8.93;;;;;;;6.57;69.42;101831.84;5031962;28;20475;-45
2022/04/12 06:57:32;;;;;;;8.63;7.90;;;;;;;6.68;70.06;101834.31;5032060;28;20806;-45
2022/04/12 07:00:00;;;;;;;9.37;8.80;;;;;;;6.67;69.83;101843.22;5031258;28;20476;-46
2022/04/12 07:02:28;;;;;;;12.17;8.43;;;;;;;6.76;69.74;101833.56;5032004;28;20440;-44
2022/04/12 07:04:56;;;;;;;9.17;8.47;;;;;;;6.89;69.46;101842.06;5031788;28;20428;-46
2022/04/12 07:07:25;;;;;;;9.37;8.87;;;;;;;6.99;69.53;101848.16;5032131;28;20442;-45
2022/04/12 07:09:53;;;;;;;9.70;9.10;;;;;;;7.18;70.16;101838.28;5031443;28;20468;-45
2022/04/12 07:12:20;;;;;;;10.23;9.43;;;;;;;7.34;68.41;101842.94;5031839;28;20435;-44
2022/04/12 07:14:48;;;;;;;9.93;9.43;;;;;;;7.32;67.93;101844.06;5031951;28;20475;-44
2022/04/12 07:17:21;;;;;;;9.93;9.27;;;;;;;7.28;68.27;101845.34;5032217;28;20467;-46
2022/04/12 07:19:48;;;;;;;9.60;9.20;;;;;;;7.34;67.81;101834.13;5031274;28;20548;-45
2022/04/12 07:22:16;;;;;;;10.37;9.70;;;;;;;7.42;68.96;101834.22;5031897;28;20783;-44
2022/04/12 07:24:45;;;;;;;10.43;9.50;;;;;;;7.48;67.68;101854.84;5032114;28;20433;-45
2022/04/12 07:27:13;;;;;;;10.00;9.40;;;;;;;7.46;67.53;101849.72;5031958;28;20523;-45
2022/04/12 07:29:41;;;;;;;9.30;8.70;;;;;;;7.50;67.29;101845.75;5031178;28;20472;-45
2022/04/12 07:32:09;;;;;;;10.23;9.63;;;;;;;7.57;67.47;101854.81;5031988;28;20432;-48
2022/04/12 07:34:37;;;;;;;9.87;9.27;;;;;;;7.60;67.15;101858.97;5032035;28;20992;-45
2022/04/12 07:37:05;;;;;;;10.30;9.70;;;;;;;7.67;66.83;101854.75;5031711;28;20945;-44
2022/04/12 07:39:32;;;;;;;9.60;9.10;;;;;;;7.71;66.95;101854.28;5031017;28;20989;-45
2022/04/12 07:42:01;;;;;;;9.90;9.13;;;;;;;7.79;66.58;101857.00;5031597;28;20440;-45
2022/04/12 07:44:35;;;;;;;10.83;9.90;;;;;;;7.94;65.69;101867.94;5031578;28;20438;-46
2022/04/12 07:47:03;;;;;;;10.60;9.90;;;;;;;7.99;65.98;101867.47;5016888;28;20435;-47
2022/04/12 07:49:30;;;;;;;10.37;9.47;;;;;;;8.03;65.70;101859.06;5030997;28;20555;-46
2022/04/12 07:51:58;;;;;;;10.87;10.03;;;;;;;8.25;65.62;101860.38;5034852;28;20443;-48
2022/04/12 07:54:26;;;;;;;10.20;9.40;;;;;;;8.32;64.79;101854.34;5035133;28;20467;-46
2022/04/12 07:56:53;;;;;;;10.13;9.13;;;;;;;8.39;64.41;101859.88;5035100;28;20519;-46
2022/04/12 07:59:22;;;;;;;9.00;8.40;;;;;;;8.49;65.32;101847.31;5034507;28;20478;-46
2022/04/12 08:01:50;;;;;;;9.50;8.80;;;;;;;8.58;65.16;101857.00;5035103;28;20442;-45
2022/04/12 08:04:17;;;;;;;9.80;9.30;;;;;;;8.67;64.21;101850.75;5034997;28;20432;-48
2022/04/12 08:06:45;;;;;;;11.27;10.27;;;;;;;8.82;64.13;101845.69;5034851;28;20435;-46
2022/04/12 08:09:13;;;;;;;8.57;7.97;;;;;;;8.85;62.60;101851.53;5034315;28;20676;-48
2022/04/12 08:11:41;;;;;;;9.87;8.90;;;;;;;8.99;63.24;101854.59;5034615;28;20446;-44
2022/04/12 08:14:08;;;;;;;8.37;7.83;;;;;;;9.06;62.97;101852.94;5035080;28;20482;-44
2022/04/12 08:16:38;;;;;;;9.17;8.27;;;;;;;9.06;62.49;101844.97;5035473;28;20432;-46
2022/04/12 08:19:06;;;;;;;8.40;7.97;;;;;;;9.21;62.39;101843.34;5034947;28;20841;-44
2022/04/12 08:21:36;;;;;;;8.03;7.40;;;;;;;9.40;62.15;101854.59;5034957;28;20434;-45
2022/04/12 08:24:04;;;;;;;7.53;7.00;;;;;;;9.44;61.44;101845.25;5035514;28;20432;-45
2022/04/12 08:26:32;;;;;;;8.30;7.70;;;;;;;9.70;60.05;101847.00;5034930;28;20436;-45
2022/04/12 08:28:59;;;;;;;8.17;7.67;;;;;;;9.85;61.12;101851.53;5034600;28;20479;-44
2022/04/12 08:31:27;;;;;;;8.73;7.60;;;;;;;9.86;59.67;101842.50;5034822;28;20527;-45
2022/04/12 08:33:56;;;;;;;7.73;7.20;;;;;;;9.80;59.74;101840.50;5034898;28;20813;-45
2022/04/12 08:36:25;;;;;;;8.33;7.63;;;;;;;9.88;59.36;101843.19;5034736;28;20783;-45
2022/04/12 08:38:54;;;;;;;7.63;6.90;;;;;;;9.83;59.38;101844.66;5034299;28;20479;-44
2022/04/12 08:41:24;;;;;;;7.80;7.23;;;;;;;9.95;60.23;101849.50;5034446;28;20518;-45
2022/04/12 08:43:56;;;;;;;7.57;7.10;;;;;;;10.09;59.99;101839.22;5034834;28;20490;-46
2022/04/12 08:46:27;;;;;;;7.93;7.33;;;;;;;10.27;59.37;101842.56;5028122;28;20425;-45
2022/04/12 08:48:57;;;;;;;7.27;6.67;;;;;;;10.31;58.49;101836.72;5029418;28;20460;-45
2022/04/12 08:51:27;;;;;;;7.53;7.03;;;;;;;10.16;58.57;101838.38;5034401;28;20468;-46
2022/04/12 08:53:57;;;;;;;7.50;6.80;;;;;;;10.17;59.53;101836.56;5034792;28;20440;-44
2022/04/12 08:56:26;;;;;;;8.47;7.73;;;;;;;10.28;59.84;101833.53;5034168;28;20977;-45
2022/04/12 08:58:53;;;;;;;8.23;7.57;;;;;;;10.35;59.46;101829.22;5033719;28;20472;-46
2022/04/12 09:01:37;;;;;;;8.07;7.63;;;;;;;10.51;59.47;101824.69;5033825;28;20437;-45
2022/04/12 09:04:07;;;;;;;8.30;7.80;;;;;;;10.72;59.45;101831.31;5034535;28;20536;-45
2022/04/12 09:06:35;;;;;;;7.90;7.30;;;;;;;10.93;57.51;101826.25;5034174;28;20429;-45
2022/04/12 09:09:11;;;;;;;8.83;8.13;;;;;;;11.01;56.95;101826.22;5033717;28;20463;-48
2022/04/12 09:11:41;;;;;;;7.87;7.20;;;;;;;11.02;57.31;101825.22;5034020;28;20431;-47
2022/04/12 09:14:13;;;;;;;7.17;6.50;;;;;;;11.07;56.92;101820.19;5033743;28;20969;-44
2022/04/12 09:16:43;;;;;;;10.63;7.70;;;;;;;11.00;57.18;101821.88;5057701;22;20851;-47
2022/04/12 09:19:12;;;;;;;6.63;6.33;;;;;;;11.26;57.55;101811.72;5024596;28;20791;-49
2022/04/12 09:21:46;;;;;;;7.27;6.67;;;;;;;11.41;57.25;101811.84;5033055;28;20433;-42
2022/04/12 09:24:19;;;;;;;8.03;7.50;;;;;;;11.61;54.99;101808.53;5033111;28;20448;-48
2022/04/12 09:26:55;;;;;;;7.30;6.80;;;;;;;11.67;55.71;101801.66;5033154;28;20444;-44
2022/04/12 09:29:26;;;;;;;10.30;7.10;;;;;;;11.91;56.45;101809.50;5032542;28;21004;-44
2022/04/12 09:31:57;;;;;;;7.87;7.13;;;;;;;11.92;55.90;101811.16;5032860;28;20458;-45
2022/04/12 09:34:27;;;;;;;7.30;6.80;;;;;;;11.84;56.22;101808.56;5032888;28;20456;-42
2022/04/12 09:37:24;;;;;;;7.77;7.30;;;;;;;11.71;56.09;101810.19;5032876;28;20511;-46
2022/04/12 09:40:04;;;;;;;7.73;7.33;;;;;;;11.88;56.91;101803.69;5032250;28;20468;-44
2022/04/12 09:42:44;;;;;;;7.33;6.80;;;;;;;11.85;56.99;101790.69;5032663;28;20428;-43
2022/04/12 09:45:13;;;;;;;7.90;7.27;;;;;;;12.10;56.29;101778.75;5025028;28;20460;-44
2022/04/12 09:47:42;;;;;;;7.47;6.87;;;;;;;12.03;56.09;101781.34;5024572;28;20526;-45
2022/04/12 09:50:33;;;;;;;8.53;7.93;;;;;;;12.02;56.37;101778.84;5032049;28;20464;-45
2022/04/12 09:53:07;;;;;;;8.40;7.73;;;;;;;12.00;55.89;101784.38;5032436;28;20534;-42
2022/04/12 09:55:36;;;;;;;9.57;7.63;;;;;;;12.13;56.94;101781.06;5032309;28;20479;-44
2022/04/12 09:58:24;;;;;;;8.53;7.70;;;;;;;11.81;56.49;101773.34;5032129;28;20467;-43
2022/04/12 10:00:52;;;;;;;9.93;8.20;;;;;;;12.13;56.76;101787.25;5032212;28;20432;-43
2022/04/12 10:03:21;;;;;;;8.97;8.20;;;;;;;12.33;56.23;101776.03;5032370;28;20443;-46
2022/04/12 10:05:49;;;;;;;8.47;7.93;;;;;;;12.33;55.70;101776.03;5032264;28;20816;-45
2022/04/12 10:08:20;;;;;;;9.50;8.67;;;;;;;12.34;55.40;101780.34;5031657;28;20467;-47
2022/04/12 10:10:47;;;;;;;9.13;8.20;;;;;;;12.54;55.87;101773.47;5032259;28;20442;-44
2022/04/12 10:13:16;;;;;;;10.03;9.07;;;;;;;12.67;55.19;101777.16;5031626;28;20439;-44
2022/04/12 10:15:44;;;;;;;9.77;8.10;;;;;;;12.72;52.96;101777.41;5031877;28;20478;-43
2022/04/12 10:18:15;;;;;;;8.67;8.13;;;;;;;12.82;52.26;101765.59;5031537;28;20494;-43
2022/04/12 10:20:43;;;;;;;8.27;7.57;;;;;;;13.06;52.44;101747.38;5031691;28;20471;-47
2022/04/12 10:23:18;;;;;;;8.87;8.10;;;;;;;13.08;52.54;101739.22;5032229;28;20428;-47
2022/04/12 10:25:49;;;;;;;7.83;7.33;;;;;;;13.00;52.13;101736.59;5032071;28;20448;-43
2022/04/12 10:28:18;;;;;;;8.57;7.63;;;;;;;13.29;51.67;101731.16;5031556;28;20460;-45
2022/04/12 10:30:46;;;;;;;9.93;9.03;;;;;;;13.18;51.89;101723.63;5031692;28;20805;-43
2022/04/12 10:33:19;;;;;;;8.63;7.83;;;;;;;13.30;51.37;101717.59;5031749;28;20866;-43
2022/04/12 10:35:59;;;;;;;8.50;7.80;;;;;;;13.47;50.81;101720.03;5031957;28;20479;-45
2022/04/12 10:38:38;;;;;;;8.03;7.17;;;;;;;13.48;49.92;101717.16;5031430;28;20463;-43
2022/04/12 10:41:17;;;;;;;8.37;7.57;;;;;;;13.55;50.10;101701.16;5031700;28;20424;-44
2022/04/12 10:43:45;;;;;;;8.47;7.97;;;;;;;13.40;49.95;101703.91;5031677;28;20443;-42
2022/04/12 10:46:19;;;;;;;9.23;8.27;;;;;;;13.39;51.43;101710.25;5025798;28;20455;-43
2022/04/12 10:48:54;;;;;;;8.20;7.70;;;;;;;12.99;50.68;101698.25;5025491;28;21092;-41
2022/04/12 10:51:37;;;;;;;8.50;7.90;;;;;;;12.97;51.84;101700.31;5031562;28;20438;-44
2022/04/12 10:54:10;;;;;;;10.00;9.13;;;;;;;13.03;52.64;101693.38;5031627;28;20440;-47
2022/04/12 10:56:38;;;;;;;8.23;7.60;;;;;;;13.01;54.17;101693.56;5031495;28;20971;-45
2022/04/12 10:59:06;;;;;;;9.40;8.60;;;;;;;13.07;55.17;101697.34;5031252;28;20464;-42
2022/04/12 11:01:35;;;;;;;10.20;9.20;;;;;;;12.97;56.73;101699.47;5031425;28;20432;-46
2022/04/12 11:04:04;;;;;;;11.17;9.40;;;;;;;12.91;57.55;101700.22;5031613;28;20534;-45
2022/04/12 11:06:33;;;;;;;9.00;8.10;;;;;;;13.02;56.65;101694.41;5031301;28;20996;-45
2022/04/12 11:09:15;;;;;;;8.87;7.80;;;;;;;12.95;58.03;101682.78;5031226;28;20460;-44
2022/04/12 11:11:44;;;;;;;9.37;8.47;;;;;;;13.07;58.33;101681.28;5031354;28;20928;-44
2022/04/12 11:14:23;;;;;;;9.13;8.17;;;;;;;12.91;58.20;101673.47;5031428;28;20467;-45
2022/04/12 11:16:52;;;;;;;9.43;8.67;;;;;;;12.88;58.81;101682.69;5031223;28;20475;-44
2022/04/12 11:19:24;;;;;;;9.53;8.90;;;;;;;12.88;59.57;101673.84;5031080;28;20543;-45
2022/04/12 11:22:11;;;;;;;10.33;9.30;;;;;;;13.10;59.00;101657.66;5031288;28;20421;-43
2022/04/12 11:24:41;;;;;;;10.23;9.30;;;;;;;13.20;59.89;101670.75;5033067;28;20443;-44
2022/04/12 11:27:10;;;;;;;9.37;8.60;;;;;;;13.34;56.95;101651.09;5035123;28;20455;-42
2022/04/12 11:29:39;;;;;;;10.97;8.67;;;;;;;13.37;56.77;101660.56;5034617;28;20464;-43
2022/04/12 11:32:08;;;;;;;8.93;8.17;;;;;;;13.69;55.51;101660.84;5035066;28;20809;-45
2022/04/12 11:34:38;;;;;;;9.13;8.33;;;;;;;14.00;56.20;101655.09;5035100;28;20889;-47
2022/04/12 11:37:08;;;;;;;10.30;9.40;;;;;;;14.12;55.53;101664.25;5034892;28;21011;-42
2022/04/12 11:39:38;;;;;;;10.90;10.10;;;;;;;14.08;53.96;101670.19;5034412;28;20467;-46
2022/04/12 11:42:08;;;;;;;10.60;9.70;;;;;;;14.23;54.25;101665.53;5034546;28;20443;-44